• Join FlightAware (Why Join?)
  • Login
  • US Flag 
03:30AM EDT


 

Airport Tracker/Info


-or-


 

Live Flight TrackerFlight Track Log ✈ SWA641 ✈ 28-Apr-2013 ✈ KSTL - KPHL

Flight Track Log - Related Links

Times and Time Zones

All times are in EDT time to prevent confusion due to time zone crossing. See the SWA641 flight status page for this flight to view local times or setup timezone preferences in your user account.

Time Position Orientation Groundspeed Altitude Reporting Facility
EDT Latitude Longitude Course Direction KTS MPH feet Rate Location/Type
12:44PM 38.7667 -90.3833 90° East 163 188 2,100  Level Gateway (St. Louis) TRACON
12:45PM 38.8108 -90.4017 342° North 224 258 3,800 2,040 Climbing Kansas City Center
12:46PM 38.8336 -90.3214 70° East 255 293 6,100 3,180 Climbing Kansas City Center
12:47PM 38.8278 -90.1986 93° East 281 323 10,400 3,240 Climbing Kansas City Center
12:48PM 38.8219 -90.0764 93° East 335 386 12,900 2,700 Climbing Kansas City Center
12:49PM 38.8144 -89.9464 94° East 360 414 16,100 2,820 Climbing Kansas City Center
12:50PM 38.7833 -89.4730 90° East  Level FlightAware Approximate
12:50PM 38.8078 -89.8119 94° East 372 428 18,800  Level Kansas City Center
12:51PM 38.7997 -89.6575 94° East 387 445 22,000 2,700 Climbing Kansas City Center
12:52PM 38.8183 -89.5172 80° East 405 466 24,400 2,160 Climbing Kansas City Center
12:53PM 38.8622 -89.3694 69° East 413 475 26,500 1,800 Climbing Kansas City Center
12:54PM 38.9050 -89.2242 69° East 432 497 28,200 1,620 Climbing Kansas City Center
12:55PM 38.9522 -89.0631 69° East 447 514 29,900 1,740 Climbing Kansas City Center
12:56PM 38.9950 -88.9211 69° East 457 526 31,900 1,500 Climbing Kansas City Center
12:57PM 39.0417 -88.7717 68° East 456 525 33,000 720 Climbing Kansas City Center
12:59PM 39.0819 -88.6231 71° East 446 513 33,400 960 Climbing Kansas City Center
01:00PM 39.1286 -88.4617 70° East 446 513 35,100 1,500 Climbing Kansas City Center
01:01PM 39.1717 -88.3119 70° East 445 512 36,500 900 Climbing Kansas City Center
01:02PM 39.2131 -88.1611 70° East 444 511 37,000 240 Climbing Kansas City Center
01:03PM 39.2653 -87.9775 70° East 450 518 37,000  Level Kansas City Center
01:03PM 39.2972 -87.8578 71° East 448 516 37,000  Level Indianapolis Center
01:05PM 39.3400 -87.7044 70° East 451 519 37,000  Level Indianapolis Center
01:06PM 39.3692 -87.5433 77° East 450 518 37,000  Level Indianapolis Center
01:07PM 39.3922 -87.3831 79° East 452 520 37,000  Level Indianapolis Center
01:08PM 39.4156 -87.2225 79° East 452 520 37,000  Level Indianapolis Center
01:09PM 39.4389 -87.0625 79° East 452 520 37,000  Level Indianapolis Center
01:10PM 39.4611 -86.9006 80° East 455 524 37,000  Level Indianapolis Center
01:11PM 39.4886 -86.7136 79° East 454 522 37,000  Level Indianapolis Center
01:12PM 39.5114 -86.5531 80° East 453 521 37,000  Level Indianapolis Center
01:13PM 39.5333 -86.3933 80° East 454 522 37,000  Level Indianapolis Center
01:14PM 39.5542 -86.2336 80° East 454 522 37,000  Level Indianapolis Center
01:15PM 39.5767 -86.0725 80° East 458 527 37,000  Level Indianapolis Center
01:16PM 39.6025 -85.8833 80° East 459 528 37,000  Level Indianapolis Center
01:17PM 39.6244 -85.7192 80° East 460 529 37,000  Level Indianapolis Center
01:18PM 39.6456 -85.5531 81° East 465 535 37,000  Level Indianapolis Center
01:19PM 39.6675 -85.3861 80° East 466 536 37,000  Level Indianapolis Center
01:20PM 39.6886 -85.2167 81° East 473 544 37,000  Level Indianapolis Center
01:21PM 39.7100 -85.0486 81° East 472 543 37,000  Level Indianapolis Center
01:22PM 39.7336 -84.8611 81° East 475 547 37,000  Level Indianapolis Center
01:23PM 39.7544 -84.6906 81° East 474 545 37,000  Level Indianapolis Center
01:24PM 39.7750 -84.5181 81° East 477 549 37,000  Level Indianapolis Center
01:25PM 39.7958 -84.3469 81° East 476 548 37,000  Level Indianapolis Center
01:26PM 39.8164 -84.1744 81° East 478 550 37,000  Level Indianapolis Center
01:27PM 39.8364 -84.0036 81° East 475 547 37,000  Level Indianapolis Center
01:28PM 39.8556 -83.8317 82° East 475 547 37,000  Level Indianapolis Center
01:29PM 39.8775 -83.6328 82° East 471 542 37,000  Level Indianapolis Center
01:30PM 39.8986 -83.4644 81° East 475 547 37,000  Level Indianapolis Center
01:31PM 39.9153 -83.3067 82° East 475 547 37,000  Level Indianapolis Center
01:32PM 39.9367 -83.1061 82° East 472 543 37,000  Level Indianapolis Center
01:33PM 39.9550 -82.9336 82° East 475 547 37,000  Level Indianapolis Center
01:34PM 39.9731 -82.7622 82° East 475 547 37,000  Level Indianapolis Center
01:35PM 39.9911 -82.5886 82° East 478 550 37,000  Level Indianapolis Center
01:36PM 40.0092 -82.4156 82° East 480 552 37,000  Level Indianapolis Center
01:37PM 40.0269 -82.2411 82° East 484 557 37,000  Level Indianapolis Center
01:39PM 40.0450 -82.0661 82° East 482 555 37,000  Level Indianapolis Center
01:40PM 40.0614 -81.8875 83° East 490 564 37,000  Level Indianapolis Center
01:41PM 40.0803 -81.6919 83° East 487 560 37,000  Level Indianapolis Center
01:42PM 40.0964 -81.5169 83° East 483 556 37,000  Level Indianapolis Center
01:43PM 40.1128 -81.3436 83° East 482 555 37,000  Level Indianapolis Center
01:44PM 40.1294 -81.1689 83° East 480 552 37,000  Level Indianapolis Center
01:44PM 40.1389 -81.0828 82° East 482 555 37,000  Level Cleveland Center
01:45PM 40.1542 -80.9117 83° East 482 555 37,000  Level Cleveland Center
01:46PM 40.1692 -80.7381 83° East 482 555 37,000 720 Level Cleveland Center
01:47PM 40.1861 -80.5642 83° East 482 555 38,500 960 Climbing Cleveland Center
01:48PM 40.1983 -80.3900 85° East 482 555 39,000 240 Climbing Cleveland Center
01:49PM 40.2103 -80.2161 85° East 482 555 39,000  Level Cleveland Center
01:50PM 40.2264 -80.0419 83° East 482 555 39,000  Level Cleveland Center
01:51PM 40.2422 -79.8678 83° East 482 555 39,000  Level Cleveland Center
01:52PM 40.2533 -79.6908 85° East 482 555 39,000  Level Cleveland Center
01:53PM 40.2664 -79.5219 84° East 477 549 39,000  Level Cleveland Center
01:54PM 40.2794 -79.3475 84° East 477 549 39,000  Level Cleveland Center
01:55PM 40.2900 -79.1922 85° East 477 549 39,000 -1,560 Level Cleveland Center
01:56PM 40.3025 -79.0150 85° East 484 557 35,900 -2,700 Descending Cleveland Center
01:57PM 40.3144 -78.8378 85° East 484 557 33,600 -2,100 Descending Cleveland Center
01:58PM 40.3158 -78.6633 89° East 484 557 31,700 -2,520 Descending Cleveland Center
01:59PM 40.3150 -78.4947 90° East 472 543 28,600 -2,340 Descending Cleveland Center
02:01PM 40.3131 -78.2356 90° East 455 524 25,900 -1,440 Descending New York Center
02:02PM 40.3122 -78.0856 90° East 431 496 25,000 -480 Descending New York Center
02:03PM 40.3131 -77.9358 90° East 415 478 25,000  Level New York Center
02:04PM 40.3114 -77.7858 91° East 427 491 25,000 -360 Level New York Center
02:05PM 40.3089 -77.6169 91° East 451 519 24,300 -900 Descending New York Center
02:06PM 40.3078 -77.4533 90° East 451 519 23,300 -960 Descending New York Center
02:07PM 40.3025 -77.2869 92° East 456 525 22,400 -960 Descending New York Center
02:08PM 40.3011 -77.1233 91° East 456 525 21,400 -1,020 Descending New York Center
02:09PM 40.2742 -76.9631 102° East 451 519 20,400 -1,020 Descending New York Center
02:10PM 40.2403 -76.8103 106° East 442 509 19,400 -1,080 Descending New York Center
02:11PM 40.2028 -76.6467 107° East 432 497 18,300 -900 Descending New York Center
02:12PM 40.1722 -76.5056 106° East 427 491 17,700 -1,380 Descending New York Center
02:13PM 40.1406 -76.3808 108° East 414 476 15,600 -2,400 Descending New York Center
02:14PM 40.1167 -76.2267 101° East 400 460 12,900 -2,340 Descending New York Center
02:15PM 40.1081 -76.0931 95° East 378 435 10,900 -1,320 Descending New York Center
02:16PM 40.0989 -75.9731 96° East 351 404 10,300 -660 Descending New York Center
02:17PM 40.0883 -75.8825 99° East 301 346 9,600 -900 Descending New York Center
02:18PM 40.0825 -75.7736 94° East 273 314 8,500 -1,020 Descending New York Center
02:19PM 40.0778 -75.6892 94° East 268 308 7,600 -1,020 Descending New York Center
02:20PM 40.0736 -75.5858 93° East 263 303 6,500 -840 Descending New York Center
02:21PM 40.0689 -75.4986 94° East 263 303 6,000 -300 Descending New York Center
02:22PM 40.0644 -75.3981 93° East 258 297 6,000  Level New York Center
02:23PM 40.0592 -75.3164 95° East 258 297 6,000  Level New York Center
02:23PM 40.0667 -75.2833 73° East 256 295 6,000  Level Philadelphia TRACON
02:24PM 40.0333 -75.2000 118° Southeast 240 276 6,000  Level Philadelphia TRACON
02:25PM 39.9833 -75.1500 143° Southeast 197 227 6,000 -300 Level Philadelphia TRACON
02:26PM 40.0000 -75.0833 72° East 204 235 5,500 -540 Descending Philadelphia TRACON
02:27PM 40.0000 -75.0167 90° East 207 238 5,000 -300 Descending Philadelphia TRACON
02:28PM 40.0167 -74.9500 72° East 206 237 5,000 -120 Level Philadelphia TRACON
02:29PM 39.9667 -74.9333 166° South 197 227 4,800 -600 Descending Philadelphia TRACON
02:30PM 39.9333 -74.9833 229° Southwest 181 208 3,800 -960 Descending Philadelphia TRACON
02:31PM 39.9167 -75.0500 252° West 198 228 2,800 -1,020 Descending Philadelphia TRACON
02:32PM 39.9000 -75.1000 247° West 168 193 1,800 -900 Descending Philadelphia TRACON
02:33PM 39.8833 -75.1500 247° West 140 161 1,100 -780 Descending Philadelphia TRACON
02:34PM 39.8833 -75.2000 270° West 137 158 400 -720 Descending Philadelphia TRACON
02:36PM 39.8667 -75.2333 247° West  Level FlightAware Approximate
02:43PM 39.8722 -75.2409 247° West  Level Estimated